createdAt,value
2019-01-14T00:01:50.675Z,40.23
2019-01-14T00:07:54.968Z,47.62
2019-01-14T00:13:59.284Z,22.82
2019-01-14T00:20:07.056Z,37.30
2019-01-14T00:26:11.049Z,46.92
2019-01-14T00:32:15.273Z,22.80
2019-01-14T00:38:19.491Z,32.90
2019-01-14T00:44:26.050Z,22.90
2019-01-14T00:50:30.399Z,24.63
2019-01-14T00:56:34.618Z,29.25
2019-01-14T01:02:39.096Z,24.55
2019-01-14T01:08:43.541Z,19.23
2019-01-14T01:14:47.854Z,25.88
2019-01-14T01:20:52.502Z,24.02
2019-01-14T01:26:59.824Z,25.70
2019-01-14T01:52:27.236Z,23.42
2019-01-14T01:58:31.683Z,18.48
2019-01-14T02:04:35.985Z,13.13
2019-01-14T02:10:40.221Z,15.72
2019-01-14T02:16:46.780Z,18.62
2019-01-14T02:22:53.643Z,16.65
2019-01-14T02:28:57.897Z,17.92
2019-01-14T02:35:02.150Z,18.10
2019-01-14T02:41:06.432Z,14.83
2019-01-14T02:47:11.735Z,16.75
2019-01-14T02:53:15.972Z,12.05
2019-01-14T02:59:20.254Z,13.62
2019-01-14T03:05:24.519Z,10.80
2019-01-14T03:11:28.812Z,14.25
2019-01-14T03:17:34.041Z,11.65
2019-01-14T03:23:38.315Z,13.48
2019-01-14T03:29:42.800Z,16.55
2019-01-14T03:35:47.204Z,9.33
2019-01-14T03:41:51.568Z,14.15
2019-01-14T03:47:57.936Z,15.88
2019-01-14T03:54:02.317Z,9.80
2019-01-14T04:00:09.283Z,12.33
2019-01-14T04:06:13.588Z,12.03
2019-01-14T04:12:17.993Z,12.60
2019-01-14T04:18:22.228Z,13.60
2019-01-14T04:24:26.549Z,14.98
2019-01-14T04:30:30.752Z,12.68
2019-01-14T04:36:37.028Z,12.37
2019-01-14T04:42:41.059Z,12.95
2019-01-14T04:48:45.387Z,13.78
2019-01-14T04:54:49.717Z,12.00
2019-01-14T05:00:54.201Z,11.65
2019-01-14T05:06:58.655Z,13.72
2019-01-14T05:13:02.975Z,12.58
2019-01-14T05:19:07.336Z,13.70
2019-01-14T05:25:11.537Z,12.65
2019-01-14T05:31:15.855Z,12.60
2019-01-14T05:37:20.472Z,11.00
2019-01-14T05:43:24.755Z,14.25
2019-01-14T05:49:29.324Z,12.73
2019-01-14T05:55:33.581Z,13.88
2019-01-14T06:01:38.069Z,12.15
2019-01-14T06:07:44.953Z,12.85
2019-01-14T06:13:48.908Z,12.07
2019-01-14T06:19:53.711Z,11.35
2019-01-14T06:25:58.052Z,10.78
2019-01-14T06:32:02.670Z,12.10
2019-01-14T06:38:07.056Z,15.78
2019-01-14T06:44:11.541Z,14.73
2019-01-14T06:50:17.398Z,12.75
2019-01-14T06:56:21.638Z,14.47
2019-01-14T07:02:26.039Z,13.25
2019-01-14T07:08:30.252Z,14.93
2019-01-14T07:14:34.486Z,13.58
2019-01-14T07:20:38.742Z,15.60
2019-01-14T07:26:43.138Z,13.93
2019-01-14T07:32:47.367Z,11.15
2019-01-14T07:38:51.746Z,7.97
2019-01-14T07:44:56.035Z,17.92
2019-01-14T07:51:00.547Z,20.10
2019-01-14T07:57:04.763Z,12.78
2019-01-14T08:03:09.119Z,10.25
2019-01-14T08:09:13.338Z,12.10
2019-01-14T08:15:19.634Z,9.50
2019-01-14T08:21:23.964Z,9.80
2019-01-14T08:27:28.267Z,11.60
2019-01-14T08:33:32.689Z,15.32
2019-01-14T08:39:37.113Z,16.20
2019-01-14T08:45:41.507Z,10.72
2019-01-14T08:51:45.721Z,12.07
2019-01-14T08:57:54.491Z,12.37
2019-01-14T09:03:56.065Z,15.72
2019-01-14T09:10:00.539Z,14.18
2019-01-14T09:16:04.807Z,14.35
2019-01-14T09:22:09.116Z,13.40
2019-01-14T09:28:13.375Z,11.55
2019-01-14T09:34:17.659Z,9.80
2019-01-14T09:40:23.700Z,11.93
2019-01-14T09:46:28.052Z,10.13
2019-01-14T09:52:32.379Z,13.88
2019-01-14T09:58:36.741Z,9.63
2019-01-14T10:04:41.084Z,10.90
2019-01-14T10:10:45.344Z,8.95
2019-01-14T10:16:49.728Z,11.57
2019-01-14T10:22:54.003Z,9.80
2019-01-14T10:28:58.416Z,11.55
2019-01-14T10:35:02.716Z,9.85
2019-01-14T10:41:07.140Z,13.83
2019-01-14T10:47:11.436Z,9.13
2019-01-14T10:53:15.770Z,12.45
2019-01-14T10:59:20.045Z,15.38
2019-01-14T11:05:27.087Z,7.97
2019-01-14T11:11:31.296Z,8.75
2019-01-14T11:17:35.638Z,11.60
2019-01-14T11:23:39.882Z,10.20
2019-01-14T11:29:52.428Z,14.93
2019-01-14T11:35:56.856Z,9.55
2019-01-14T11:42:01.180Z,6.60
2019-01-14T11:48:06.070Z,10.95
2019-01-14T11:54:10.362Z,8.03
2019-01-14T12:00:25.338Z,10.28
2019-01-14T12:06:29.566Z,10.30
2019-01-14T12:12:33.790Z,8.58
2019-01-14T12:18:38.019Z,9.80
2019-01-14T12:24:42.330Z,12.73
2019-01-14T12:30:47.656Z,8.23
2019-01-14T12:36:53.606Z,8.75
2019-01-14T12:42:57.978Z,13.38
2019-01-14T12:49:02.254Z,12.90
2019-01-14T12:55:07.348Z,11.40
2019-01-14T13:01:11.585Z,10.23
2019-01-14T13:07:15.915Z,10.75
2019-01-14T13:13:20.193Z,10.93
2019-01-14T13:19:24.713Z,11.18
2019-01-14T13:25:28.911Z,10.20
2019-01-14T13:31:33.185Z,7.92
2019-01-14T13:37:37.464Z,9.20
2019-01-14T13:43:41.815Z,13.22
2019-01-14T13:49:46.097Z,8.05
2019-01-14T13:55:50.351Z,7.72
2019-01-14T14:01:54.571Z,8.58
2019-01-14T14:07:58.932Z,9.23
2019-01-14T14:14:03.576Z,9.25
2019-01-14T14:20:10.855Z,10.18
2019-01-14T14:26:17.356Z,10.35
2019-01-14T14:32:21.862Z,3.75
2019-01-14T14:38:26.105Z,3.45
2019-01-14T14:44:30.424Z,4.40
2019-01-14T14:50:34.714Z,2.33
2019-01-14T14:56:38.984Z,3.77
2019-01-14T15:02:43.283Z,4.03
2019-01-14T15:08:47.666Z,3.37
2019-01-14T15:14:51.915Z,3.98
2019-01-14T15:20:56.298Z,9.90
2019-01-14T15:27:00.774Z,8.05
2019-01-14T15:33:05.051Z,7.25
2019-01-14T15:39:10.814Z,6.45
2019-01-14T15:45:16.648Z,7.80
2019-01-14T15:51:20.916Z,6.92
2019-01-14T15:57:25.202Z,6.05
2019-01-14T16:03:29.400Z,6.60
2019-01-14T16:09:33.639Z,9.75
2019-01-14T16:15:37.995Z,7.22
2019-01-14T16:21:42.244Z,11.38
2019-01-14T16:27:46.813Z,9.65
2019-01-14T16:33:51.226Z,6.37
2019-01-14T16:39:55.497Z,5.50
2019-01-14T16:45:59.759Z,6.78
2019-01-14T16:52:04.016Z,7.55
2019-01-14T16:58:08.313Z,5.00
2019-01-14T17:04:12.548Z,7.03
2019-01-14T17:10:17.141Z,7.40
2019-01-14T17:16:21.468Z,20.97
2019-01-14T17:22:25.873Z,19.52
2019-01-14T17:28:30.273Z,13.43
2019-01-14T17:34:34.534Z,5.90
2019-01-14T17:40:38.918Z,7.47
2019-01-14T17:46:43.247Z,11.25
2019-01-14T17:52:47.581Z,19.45
2019-01-14T17:58:52.201Z,37.50
2019-01-14T18:04:56.411Z,14.90
2019-01-14T18:11:01.771Z,19.50
2019-01-14T18:17:06.381Z,12.23
2019-01-14T18:23:10.572Z,16.23
2019-01-14T18:29:14.998Z,12.23
2019-01-14T18:35:19.413Z,11.33
2019-01-14T18:41:23.683Z,7.90
2019-01-14T18:47:27.960Z,9.13
2019-01-14T18:53:32.168Z,7.75
2019-01-14T18:59:36.389Z,9.40
2019-01-14T19:05:40.592Z,9.07
2019-01-14T19:11:44.788Z,12.77
2019-01-14T19:17:49.674Z,12.80
2019-01-14T19:23:53.949Z,12.63
2019-01-14T19:29:58.159Z,12.07
2019-01-14T19:36:02.371Z,14.07
2019-01-14T19:42:06.772Z,18.13
2019-01-14T19:48:11.062Z,24.57
2019-01-14T19:54:15.302Z,30.87
2019-01-14T20:00:30.592Z,18.13
2019-01-14T20:06:35.097Z,22.90
2019-01-14T20:12:39.289Z,19.37
2019-01-14T20:18:43.662Z,28.10
2019-01-14T20:24:47.919Z,20.07
2019-01-14T20:30:52.332Z,15.00
2019-01-14T20:36:56.558Z,12.87
2019-01-14T20:43:00.777Z,11.17
2019-01-14T20:49:05.072Z,17.80
2019-01-14T20:55:10.027Z,18.83
2019-01-14T21:01:14.357Z,20.40
2019-01-14T21:07:18.985Z,14.60
2019-01-14T21:13:23.209Z,16.55
2019-01-14T21:19:27.399Z,15.57
2019-01-14T21:25:31.721Z,13.17
2019-01-14T21:31:36.087Z,13.33
2019-01-14T21:37:40.339Z,12.77
2019-01-14T21:43:44.704Z,17.07
2019-01-14T21:49:49.185Z,24.33
2019-01-14T21:55:53.557Z,21.10
2019-01-14T22:01:57.761Z,18.57
2019-01-14T22:08:01.985Z,25.00
2019-01-14T22:14:06.327Z,25.40
2019-01-14T22:20:24.272Z,22.97
2019-01-14T22:26:28.915Z,20.80
2019-01-14T22:32:33.373Z,18.10
2019-01-14T22:38:37.853Z,19.33
2019-01-14T22:44:42.071Z,14.67
2019-01-14T22:50:46.303Z,16.60
2019-01-14T22:56:50.570Z,21.60
2019-01-14T23:02:54.974Z,23.50
2019-01-14T23:08:59.176Z,18.00
2019-01-14T23:15:04.746Z,17.70
2019-01-14T23:21:09.169Z,18.00
2019-01-14T23:27:13.572Z,20.17
2019-01-14T23:33:17.926Z,20.90
2019-01-14T23:39:22.278Z,20.93
2019-01-14T23:45:26.615Z,20.27
2019-01-14T23:51:30.848Z,19.17
2019-01-14T23:57:35.164Z,22.57
